sensor_id;sensor_type;location;lat;lon;timestamp;P1;durP1;ratioP1;P2;durP2;ratioP2
19006;SDS011;9636;47.382;8.480;2023-09-18T00:01:15;2.33;;;2.17;;
19006;SDS011;9636;47.382;8.480;2023-09-18T00:03:44;2.67;;;2.47;;
19006;SDS011;9636;47.382;8.480;2023-09-18T00:06:11;3.22;;;2.92;;
19006;SDS011;9636;47.382;8.480;2023-09-18T00:08:38;4.05;;;2.88;;
19006;SDS011;9636;47.382;8.480;2023-09-18T00:11:05;2.80;;;2.60;;
19006;SDS011;9636;47.382;8.480;2023-09-18T00:13:33;2.80;;;2.60;;
19006;SDS011;9636;47.382;8.480;2023-09-18T00:16:01;3.08;;;2.50;;
19006;SDS011;9636;47.382;8.480;2023-09-18T00:18:29;2.78;;;2.50;;
19006;SDS011;9636;47.382;8.480;2023-09-18T00:20:55;3.20;;;2.90;;
19006;SDS011;9636;47.382;8.480;2023-09-18T00:23:22;2.67;;;2.47;;
19006;SDS011;9636;47.382;8.480;2023-09-18T00:25:49;2.88;;;2.38;;
19006;SDS011;9636;47.382;8.480;2023-09-18T00:28:16;2.67;;;2.47;;
19006;SDS011;9636;47.382;8.480;2023-09-18T00:30:46;3.63;;;2.78;;
19006;SDS011;9636;47.382;8.480;2023-09-18T00:33:16;2.60;;;2.40;;
19006;SDS011;9636;47.382;8.480;2023-09-18T00:35:45;3.00;;;2.70;;
19006;SDS011;9636;47.382;8.480;2023-09-18T00:38:12;3.13;;;2.83;;
19006;SDS011;9636;47.382;8.480;2023-09-18T00:40:39;2.78;;;2.58;;
19006;SDS011;9636;47.382;8.480;2023-09-18T00:43:05;2.67;;;2.47;;
19006;SDS011;9636;47.382;8.480;2023-09-18T00:45:33;4.28;;;2.50;;
19006;SDS011;9636;47.382;8.480;2023-09-18T00:48:04;2.40;;;2.20;;
19006;SDS011;9636;47.382;8.480;2023-09-18T00:50:32;2.78;;;2.58;;
19006;SDS011;9636;47.382;8.480;2023-09-18T00:52:59;2.50;;;2.30;;
19006;SDS011;9636;47.382;8.480;2023-09-18T00:55:28;2.92;;;2.63;;
19006;SDS011;9636;47.382;8.480;2023-09-18T00:57:57;2.78;;;2.58;;
19006;SDS011;9636;47.382;8.480;2023-09-18T01:00:24;2.55;;;2.35;;
19006;SDS011;9636;47.382;8.480;2023-09-18T01:02:51;2.92;;;2.72;;
19006;SDS011;9636;47.382;8.480;2023-09-18T01:05:18;2.90;;;2.60;;
19006;SDS011;9636;47.382;8.480;2023-09-18T01:07:46;2.45;;;2.25;;
19006;SDS011;9636;47.382;8.480;2023-09-18T01:10:13;3.00;;;2.35;;
19006;SDS011;9636;47.382;8.480;2023-09-18T01:12:44;2.78;;;2.50;;
19006;SDS011;9636;47.382;8.480;2023-09-18T01:15:15;2.85;;;2.55;;
19006;SDS011;9636;47.382;8.480;2023-09-18T01:17:48;2.85;;;2.58;;
19006;SDS011;9636;47.382;8.480;2023-09-18T01:20:15;2.85;;;2.15;;
19006;SDS011;9636;47.382;8.480;2023-09-18T01:22:44;2.55;;;2.35;;
19006;SDS011;9636;47.382;8.480;2023-09-18T01:25:10;3.70;;;2.58;;
19006;SDS011;9636;47.382;8.480;2023-09-18T01:27:37;2.60;;;2.40;;
19006;SDS011;9636;47.382;8.480;2023-09-18T01:30:04;2.60;;;2.40;;
19006;SDS011;9636;47.382;8.480;2023-09-18T01:32:32;2.50;;;2.30;;
19006;SDS011;9636;47.382;8.480;2023-09-18T01:35:01;2.78;;;2.58;;
19006;SDS011;9636;47.382;8.480;2023-09-18T01:37:31;2.80;;;2.60;;
19006;SDS011;9636;47.382;8.480;2023-09-18T01:40:01;2.88;;;2.55;;
19006;SDS011;9636;47.382;8.480;2023-09-18T01:42:31;2.50;;;2.30;;
19006;SDS011;9636;47.382;8.480;2023-09-18T01:44:59;2.40;;;2.20;;
19006;SDS011;9636;47.382;8.480;2023-09-18T01:47:27;2.70;;;2.50;;
19006;SDS011;9636;47.382;8.480;2023-09-18T01:49:57;3.13;;;2.83;;
19006;SDS011;9636;47.382;8.480;2023-09-18T01:52:29;2.65;;;2.45;;
19006;SDS011;9636;47.382;8.480;2023-09-18T01:54:56;2.72;;;2.53;;
19006;SDS011;9636;47.382;8.480;2023-09-18T01:57:25;3.20;;;2.50;;
19006;SDS011;9636;47.382;8.480;2023-09-18T01:59:51;2.67;;;2.47;;
19006;SDS011;9636;47.382;8.480;2023-09-18T02:02:18;2.95;;;2.50;;
19006;SDS011;9636;47.382;8.480;2023-09-18T02:04:45;2.35;;;2.15;;
19006;SDS011;9636;47.382;8.480;2023-09-18T02:07:12;2.63;;;2.40;;
19006;SDS011;9636;47.382;8.480;2023-09-18T02:09:39;2.53;;;2.33;;
19006;SDS011;9636;47.382;8.480;2023-09-18T02:12:06;2.85;;;2.55;;
19006;SDS011;9636;47.382;8.480;2023-09-18T02:14:34;2.72;;;2.53;;
19006;SDS011;9636;47.382;8.480;2023-09-18T02:17:01;2.38;;;2.22;;
19006;SDS011;9636;47.382;8.480;2023-09-18T02:19:28;2.33;;;2.10;;
19006;SDS011;9636;47.382;8.480;2023-09-18T02:21:55;2.72;;;2.42;;
19006;SDS011;9636;47.382;8.480;2023-09-18T02:24:23;2.55;;;2.35;;
19006;SDS011;9636;47.382;8.480;2023-09-18T02:26:50;2.42;;;2.22;;
19006;SDS011;9636;47.382;8.480;2023-09-18T02:29:17;2.10;;;2.00;;
19006;SDS011;9636;47.382;8.480;2023-09-18T02:31:45;2.40;;;2.20;;
19006;SDS011;9636;47.382;8.480;2023-09-18T02:34:12;2.75;;;2.47;;
19006;SDS011;9636;47.382;8.480;2023-09-18T02:36:39;2.47;;;2.28;;
19006;SDS011;9636;47.382;8.480;2023-09-18T02:39:05;2.33;;;2.13;;
19006;SDS011;9636;47.382;8.480;2023-09-18T02:41:32;2.30;;;2.15;;
19006;SDS011;9636;47.382;8.480;2023-09-18T02:43:59;5.82;;;2.63;;
19006;SDS011;9636;47.382;8.480;2023-09-18T02:46:26;2.33;;;2.22;;
19006;SDS011;9636;47.382;8.480;2023-09-18T02:48:54;2.38;;;2.17;;
19006;SDS011;9636;47.382;8.480;2023-09-18T02:51:21;2.42;;;2.20;;
19006;SDS011;9636;47.382;8.480;2023-09-18T02:53:48;2.40;;;2.20;;
19006;SDS011;9636;47.382;8.480;2023-09-18T02:56:15;2.30;;;2.10;;
19006;SDS011;9636;47.382;8.480;2023-09-18T02:58:42;2.88;;;2.63;;
19006;SDS011;9636;47.382;8.480;2023-09-18T03:01:09;2.35;;;2.15;;
19006;SDS011;9636;47.382;8.480;2023-09-18T03:03:35;2.17;;;2.05;;
19006;SDS011;9636;47.382;8.480;2023-09-18T03:06:04;2.40;;;2.20;;
19006;SDS011;9636;47.382;8.480;2023-09-18T03:08:31;2.30;;;2.10;;
19006;SDS011;9636;47.382;8.480;2023-09-18T03:10:58;2.20;;;2.00;;
19006;SDS011;9636;47.382;8.480;2023-09-18T03:13:26;1.98;;;1.88;;
19006;SDS011;9636;47.382;8.480;2023-09-18T03:15:53;3.65;;;2.10;;
19006;SDS011;9636;47.382;8.480;2023-09-18T03:18:21;2.25;;;2.10;;
19006;SDS011;9636;47.382;8.480;2023-09-18T03:20:48;2.20;;;2.10;;
19006;SDS011;9636;47.382;8.480;2023-09-18T03:23:16;2.17;;;2.00;;
19006;SDS011;9636;47.382;8.480;2023-09-18T03:25:43;2.28;;;2.08;;
19006;SDS011;9636;47.382;8.480;2023-09-18T03:28:09;2.40;;;2.20;;
19006;SDS011;9636;47.382;8.480;2023-09-18T03:30:36;2.38;;;2.20;;
19006;SDS011;9636;47.382;8.480;2023-09-18T03:33:03;2.30;;;2.10;;
19006;SDS011;9636;47.382;8.480;2023-09-18T03:35:31;2.30;;;2.10;;
19006;SDS011;9636;47.382;8.480;2023-09-18T03:37:58;2.47;;;2.28;;
19006;SDS011;9636;47.382;8.480;2023-09-18T03:40:26;2.33;;;2.13;;
19006;SDS011;9636;47.382;8.480;2023-09-18T03:42:52;2.40;;;2.20;;
19006;SDS011;9636;47.382;8.480;2023-09-18T03:45:19;2.25;;;2.05;;
19006;SDS011;9636;47.382;8.480;2023-09-18T03:47:47;2.47;;;2.28;;
19006;SDS011;9636;47.382;8.480;2023-09-18T03:50:15;2.10;;;1.98;;
19006;SDS011;9636;47.382;8.480;2023-09-18T03:52:41;2.95;;;2.00;;
19006;SDS011;9636;47.382;8.480;2023-09-18T03:55:08;2.17;;;2.08;;
19006;SDS011;9636;47.382;8.480;2023-09-18T03:57:38;2.00;;;1.90;;
19006;SDS011;9636;47.382;8.480;2023-09-18T04:00:05;2.20;;;2.00;;
19006;SDS011;9636;47.382;8.480;2023-09-18T04:02:33;1.95;;;1.85;;
19006;SDS011;9636;47.382;8.480;2023-09-18T04:05:00;1.90;;;1.80;;
19006;SDS011;9636;47.382;8.480;2023-09-18T04:07:28;2.20;;;2.00;;
19006;SDS011;9636;47.382;8.480;2023-09-18T04:09:55;1.90;;;1.80;;
19006;SDS011;9636;47.382;8.480;2023-09-18T04:12:21;2.15;;;2.05;;
19006;SDS011;9636;47.382;8.480;2023-09-18T04:14:50;2.33;;;2.13;;
19006;SDS011;9636;47.382;8.480;2023-09-18T04:17:16;2.30;;;2.10;;
19006;SDS011;9636;47.382;8.480;2023-09-18T04:19:43;1.98;;;1.88;;
19006;SDS011;9636;47.382;8.480;2023-09-18T04:22:10;2.30;;;2.10;;
19006;SDS011;9636;47.382;8.480;2023-09-18T04:24:38;2.38;;;2.10;;
19006;SDS011;9636;47.382;8.480;2023-09-18T04:27:05;2.15;;;1.95;;
19006;SDS011;9636;47.382;8.480;2023-09-18T04:29:32;1.90;;;1.80;;
19006;SDS011;9636;47.382;8.480;2023-09-18T04:32:02;2.25;;;2.08;;
19006;SDS011;9636;47.382;8.480;2023-09-18T04:34:30;2.00;;;1.90;;
19006;SDS011;9636;47.382;8.480;2023-09-18T04:36:57;2.67;;;2.10;;
19006;SDS011;9636;47.382;8.480;2023-09-18T04:39:24;2.20;;;2.00;;
19006;SDS011;9636;47.382;8.480;2023-09-18T04:41:50;2.60;;;2.00;;
19006;SDS011;9636;47.382;8.480;2023-09-18T04:44:17;2.17;;;1.98;;
19006;SDS011;9636;47.382;8.480;2023-09-18T04:46:44;1.95;;;1.85;;
19006;SDS011;9636;47.382;8.480;2023-09-18T04:49:12;2.15;;;1.90;;
19006;SDS011;9636;47.382;8.480;2023-09-18T04:51:39;2.53;;;2.10;;
19006;SDS011;9636;47.382;8.480;2023-09-18T04:54:06;1.95;;;1.85;;
19006;SDS011;9636;47.382;8.480;2023-09-18T04:56:33;1.88;;;1.77;;
19006;SDS011;9636;47.382;8.480;2023-09-18T04:59:00;2.10;;;1.90;;
19006;SDS011;9636;47.382;8.480;2023-09-18T05:01:27;2.22;;;2.05;;
19006;SDS011;9636;47.382;8.480;2023-09-18T05:03:55;2.40;;;2.20;;
19006;SDS011;9636;47.382;8.480;2023-09-18T05:06:23;1.90;;;1.80;;
19006;SDS011;9636;47.382;8.480;2023-09-18T05:08:50;2.10;;;2.00;;
19006;SDS011;9636;47.382;8.480;2023-09-18T05:11:18;2.22;;;2.03;;
19006;SDS011;9636;47.382;8.480;2023-09-18T05:13:45;1.77;;;1.67;;
19006;SDS011;9636;47.382;8.480;2023-09-18T05:16:12;2.00;;;1.80;;
19006;SDS011;9636;47.382;8.480;2023-09-18T05:18:38;1.92;;;1.77;;
19006;SDS011;9636;47.382;8.480;2023-09-18T05:21:05;1.95;;;1.85;;
19006;SDS011;9636;47.382;8.480;2023-09-18T05:23:36;2.17;;;1.98;;
19006;SDS011;9636;47.382;8.480;2023-09-18T05:26:02;2.10;;;1.92;;
19006;SDS011;9636;47.382;8.480;2023-09-18T05:28:29;2.15;;;2.05;;
19006;SDS011;9636;47.382;8.480;2023-09-18T05:30:56;2.00;;;1.80;;
19006;SDS011;9636;47.382;8.480;2023-09-18T05:33:23;2.15;;;2.00;;
19006;SDS011;9636;47.382;8.480;2023-09-18T05:35:50;2.00;;;1.90;;
19006;SDS011;9636;47.382;8.480;2023-09-18T05:38:17;2.28;;;2.03;;
19006;SDS011;9636;47.382;8.480;2023-09-18T05:40:45;2.15;;;1.95;;
19006;SDS011;9636;47.382;8.480;2023-09-18T05:43:12;2.20;;;2.00;;
19006;SDS011;9636;47.382;8.480;2023-09-18T05:45:39;2.95;;;2.28;;
19006;SDS011;9636;47.382;8.480;2023-09-18T05:48:06;3.55;;;2.00;;
19006;SDS011;9636;47.382;8.480;2023-09-18T05:50:34;3.53;;;1.90;;
19006;SDS011;9636;47.382;8.480;2023-09-18T05:53:02;2.60;;;2.40;;
19006;SDS011;9636;47.382;8.480;2023-09-18T05:55:29;3.47;;;2.38;;
19006;SDS011;9636;47.382;8.480;2023-09-18T05:57:58;3.45;;;2.00;;
19006;SDS011;9636;47.382;8.480;2023-09-18T06:00:25;5.97;;;2.15;;
19006;SDS011;9636;47.382;8.480;2023-09-18T06:02:51;3.47;;;2.25;;
19006;SDS011;9636;47.382;8.480;2023-09-18T06:05:19;3.25;;;2.20;;
19006;SDS011;9636;47.382;8.480;2023-09-18T06:07:47;4.40;;;2.15;;
19006;SDS011;9636;47.382;8.480;2023-09-18T06:10:14;3.97;;;2.00;;
19006;SDS011;9636;47.382;8.480;2023-09-18T06:12:42;3.28;;;2.05;;
19006;SDS011;9636;47.382;8.480;2023-09-18T06:15:11;3.03;;;1.73;;
19006;SDS011;9636;47.382;8.480;2023-09-18T06:17:38;3.42;;;2.20;;
19006;SDS011;9636;47.382;8.480;2023-09-18T06:20:06;3.60;;;2.35;;
19006;SDS011;9636;47.382;8.480;2023-09-18T06:22:35;2.47;;;2.13;;
19006;SDS011;9636;47.382;8.480;2023-09-18T06:25:03;2.67;;;1.80;;
19006;SDS011;9636;47.382;8.480;2023-09-18T06:27:30;3.13;;;2.10;;
19006;SDS011;9636;47.382;8.480;2023-09-18T06:29:59;2.50;;;2.05;;
19006;SDS011;9636;47.382;8.480;2023-09-18T06:32:27;4.45;;;2.38;;
19006;SDS011;9636;47.382;8.480;2023-09-18T06:34:54;3.42;;;2.40;;
19006;SDS011;9636;47.382;8.480;2023-09-18T06:37:22;2.50;;;1.73;;
19006;SDS011;9636;47.382;8.480;2023-09-18T06:39:49;2.22;;;1.80;;
19006;SDS011;9636;47.382;8.480;2023-09-18T06:42:16;2.05;;;1.90;;
19006;SDS011;9636;47.382;8.480;2023-09-18T06:44:44;1.65;;;1.55;;
19006;SDS011;9636;47.382;8.480;2023-09-18T06:47:11;2.03;;;1.83;;
19006;SDS011;9636;47.382;8.480;2023-09-18T06:49:39;2.35;;;1.67;;
19006;SDS011;9636;47.382;8.480;2023-09-18T06:52:06;2.47;;;2.05;;
19006;SDS011;9636;47.382;8.480;2023-09-18T06:54:33;3.45;;;1.83;;
19006;SDS011;9636;47.382;8.480;2023-09-18T06:57:01;2.10;;;1.90;;
19006;SDS011;9636;47.382;8.480;2023-09-18T06:59:28;2.45;;;1.90;;
19006;SDS011;9636;47.382;8.480;2023-09-18T07:01:55;2.13;;;1.88;;
19006;SDS011;9636;47.382;8.480;2023-09-18T07:04:22;2.33;;;1.88;;
19006;SDS011;9636;47.382;8.480;2023-09-18T07:06:50;2.75;;;2.20;;
19006;SDS011;9636;47.382;8.480;2023-09-18T07:09:18;1.92;;;1.70;;
19006;SDS011;9636;47.382;8.480;2023-09-18T07:11:45;2.28;;;1.90;;
19006;SDS011;9636;47.382;8.480;2023-09-18T07:14:12;2.22;;;2.00;;
19006;SDS011;9636;47.382;8.480;2023-09-18T07:16:39;1.95;;;1.70;;
19006;SDS011;9636;47.382;8.480;2023-09-18T07:19:06;2.17;;;1.90;;
19006;SDS011;9636;47.382;8.480;2023-09-18T07:21:36;3.92;;;1.83;;
19006;SDS011;9636;47.382;8.480;2023-09-18T07:24:06;4.07;;;1.90;;
19006;SDS011;9636;47.382;8.480;2023-09-18T07:26:35;2.20;;;2.00;;
19006;SDS011;9636;47.382;8.480;2023-09-18T07:29:02;2.10;;;1.60;;
19006;SDS011;9636;47.382;8.480;2023-09-18T07:31:29;2.10;;;1.90;;
19006;SDS011;9636;47.382;8.480;2023-09-18T07:33:56;2.08;;;1.63;;
19006;SDS011;9636;47.382;8.480;2023-09-18T07:36:23;1.73;;;1.63;;
19006;SDS011;9636;47.382;8.480;2023-09-18T07:38:49;3.15;;;1.77;;
19006;SDS011;9636;47.382;8.480;2023-09-18T07:41:18;2.38;;;1.85;;
19006;SDS011;9636;47.382;8.480;2023-09-18T07:43:46;1.90;;;1.70;;
19006;SDS011;9636;47.382;8.480;2023-09-18T07:46:13;3.53;;;2.15;;
19006;SDS011;9636;47.382;8.480;2023-09-18T07:48:39;2.83;;;2.00;;
19006;SDS011;9636;47.382;8.480;2023-09-18T07:51:06;2.40;;;1.85;;
19006;SDS011;9636;47.382;8.480;2023-09-18T07:53:37;3.35;;;2.00;;
19006;SDS011;9636;47.382;8.480;2023-09-18T07:56:03;2.03;;;1.83;;
19006;SDS011;9636;47.382;8.480;2023-09-18T07:58:31;1.73;;;1.63;;
19006;SDS011;9636;47.382;8.480;2023-09-18T08:00:58;2.35;;;1.83;;
19006;SDS011;9636;47.382;8.480;2023-09-18T08:03:25;2.10;;;1.88;;
19006;SDS011;9636;47.382;8.480;2023-09-18T08:05:53;2.17;;;1.98;;
19006;SDS011;9636;47.382;8.480;2023-09-18T08:08:20;2.15;;;1.70;;
19006;SDS011;9636;47.382;8.480;2023-09-18T08:10:48;2.35;;;1.95;;
19006;SDS011;9636;47.382;8.480;2023-09-18T08:13:15;2.85;;;1.60;;
19006;SDS011;9636;47.382;8.480;2023-09-18T08:15:44;2.20;;;1.67;;
19006;SDS011;9636;47.382;8.480;2023-09-18T08:18:11;1.80;;;1.70;;
19006;SDS011;9636;47.382;8.480;2023-09-18T08:20:40;1.85;;;1.75;;
19006;SDS011;9636;47.382;8.480;2023-09-18T08:23:07;1.83;;;1.48;;
19006;SDS011;9636;47.382;8.480;2023-09-18T08:25:34;2.03;;;1.70;;
19006;SDS011;9636;47.382;8.480;2023-09-18T08:28:02;1.95;;;1.73;;
19006;SDS011;9636;47.382;8.480;2023-09-18T08:30:29;3.03;;;1.95;;
19006;SDS011;9636;47.382;8.480;2023-09-18T08:32:58;2.47;;;1.70;;
19006;SDS011;9636;47.382;8.480;2023-09-18T08:35:24;3.67;;;1.80;;
19006;SDS011;9636;47.382;8.480;2023-09-18T08:37:54;1.95;;;1.52;;
19006;SDS011;9636;47.382;8.480;2023-09-18T08:40:22;2.30;;;2.10;;
19006;SDS011;9636;47.382;8.480;2023-09-18T08:42:51;2.22;;;1.83;;
19006;SDS011;9636;47.382;8.480;2023-09-18T08:45:21;2.53;;;1.90;;
19006;SDS011;9636;47.382;8.480;2023-09-18T08:47:51;1.70;;;1.52;;
19006;SDS011;9636;47.382;8.480;2023-09-18T08:50:20;2.10;;;1.60;;
19006;SDS011;9636;47.382;8.480;2023-09-18T08:52:48;1.85;;;1.73;;
19006;SDS011;9636;47.382;8.480;2023-09-18T08:55:16;2.20;;;1.80;;
19006;SDS011;9636;47.382;8.480;2023-09-18T08:57:43;2.45;;;1.80;;
19006;SDS011;9636;47.382;8.480;2023-09-18T09:00:12;2.30;;;1.63;;
19006;SDS011;9636;47.382;8.480;2023-09-18T09:02:43;2.38;;;1.58;;
19006;SDS011;9636;47.382;8.480;2023-09-18T09:05:10;1.65;;;1.55;;
19006;SDS011;9636;47.382;8.480;2023-09-18T09:07:39;2.17;;;1.50;;
19006;SDS011;9636;47.382;8.480;2023-09-18T09:10:06;1.88;;;1.60;;
19006;SDS011;9636;47.382;8.480;2023-09-18T09:12:51;2.35;;;1.85;;
19006;SDS011;9636;47.382;8.480;2023-09-18T09:15:22;1.42;;;1.33;;
19006;SDS011;9636;47.382;8.480;2023-09-18T09:17:51;2.75;;;1.70;;
19006;SDS011;9636;47.382;8.480;2023-09-18T09:20:27;2.38;;;1.55;;
19006;SDS011;9636;47.382;8.480;2023-09-18T09:22:59;1.60;;;1.50;;
19006;SDS011;9636;47.382;8.480;2023-09-18T09:25:27;1.85;;;1.60;;
19006;SDS011;9636;47.382;8.480;2023-09-18T09:27:57;1.98;;;1.77;;
19006;SDS011;9636;47.382;8.480;2023-09-18T09:30:25;2.38;;;1.45;;
19006;SDS011;9636;47.382;8.480;2023-09-18T09:32:53;1.65;;;1.48;;
19006;SDS011;9636;47.382;8.480;2023-09-18T09:35:22;1.73;;;1.60;;
19006;SDS011;9636;47.382;8.480;2023-09-18T09:37:52;1.70;;;1.38;;
19006;SDS011;9636;47.382;8.480;2023-09-18T09:40:22;1.75;;;1.58;;
19006;SDS011;9636;47.382;8.480;2023-09-18T09:42:50;1.63;;;1.48;;
19006;SDS011;9636;47.382;8.480;2023-09-18T09:45:25;1.60;;;1.40;;
19006;SDS011;9636;47.382;8.480;2023-09-18T09:47:53;1.42;;;1.33;;
19006;SDS011;9636;47.382;8.480;2023-09-18T09:50:21;2.28;;;1.60;;
19006;SDS011;9636;47.382;8.480;2023-09-18T09:52:50;1.45;;;1.35;;
19006;SDS011;9636;47.382;8.480;2023-09-18T09:55:19;1.60;;;1.50;;
19006;SDS011;9636;47.382;8.480;2023-09-18T09:57:55;1.65;;;1.52;;
19006;SDS011;9636;47.382;8.480;2023-09-18T10:00:25;2.05;;;1.60;;
19006;SDS011;9636;47.382;8.480;2023-09-18T10:02:57;1.70;;;1.40;;
19006;SDS011;9636;47.382;8.480;2023-09-18T10:05:27;1.52;;;1.42;;
19006;SDS011;9636;47.382;8.480;2023-09-18T10:07:59;1.30;;;1.20;;
19006;SDS011;9636;47.382;8.480;2023-09-18T10:10:31;2.17;;;1.55;;
19006;SDS011;9636;47.382;8.480;2023-09-18T10:13:00;1.63;;;1.52;;
19006;SDS011;9636;47.382;8.480;2023-09-18T10:15:34;2.97;;;1.67;;
19006;SDS011;9636;47.382;8.480;2023-09-18T10:18:05;4.38;;;1.45;;
19006;SDS011;9636;47.382;8.480;2023-09-18T10:20:42;1.50;;;1.40;;
19006;SDS011;9636;47.382;8.480;2023-09-18T10:23:12;1.27;;;1.20;;
19006;SDS011;9636;47.382;8.480;2023-09-18T10:25:51;2.15;;;1.30;;
19006;SDS011;9636;47.382;8.480;2023-09-18T10:28:23;2.70;;;1.33;;
19006;SDS011;9636;47.382;8.480;2023-09-18T10:30:51;1.50;;;1.40;;
19006;SDS011;9636;47.382;8.480;2023-09-18T10:33:18;1.50;;;1.40;;
19006;SDS011;9636;47.382;8.480;2023-09-18T10:35:46;1.80;;;1.40;;
19006;SDS011;9636;47.382;8.480;2023-09-18T10:38:14;1.85;;;1.40;;
19006;SDS011;9636;47.382;8.480;2023-09-18T10:40:43;1.55;;;1.40;;
19006;SDS011;9636;47.382;8.480;2023-09-18T10:43:15;1.40;;;1.30;;
19006;SDS011;9636;47.382;8.480;2023-09-18T10:45:43;1.95;;;1.35;;
19006;SDS011;9636;47.382;8.480;2023-09-18T10:48:10;1.27;;;1.17;;
19006;SDS011;9636;47.382;8.480;2023-09-18T10:50:39;1.60;;;1.42;;
19006;SDS011;9636;47.382;8.480;2023-09-18T10:53:08;2.15;;;1.40;;
19006;SDS011;9636;47.382;8.480;2023-09-18T10:55:35;2.13;;;1.45;;
19006;SDS011;9636;47.382;8.480;2023-09-18T10:58:03;1.27;;;1.20;;
19006;SDS011;9636;47.382;8.480;2023-09-18T11:00:32;1.38;;;1.27;;
19006;SDS011;9636;47.382;8.480;2023-09-18T11:03:11;1.48;;;1.38;;
19006;SDS011;9636;47.382;8.480;2023-09-18T11:05:43;1.30;;;1.20;;
19006;SDS011;9636;47.382;8.480;2023-09-18T11:08:27;1.42;;;1.20;;
19006;SDS011;9636;47.382;8.480;2023-09-18T11:10:55;1.00;;;1.00;;
19006;SDS011;9636;47.382;8.480;2023-09-18T11:13:29;1.30;;;1.20;;
19006;SDS011;9636;47.382;8.480;2023-09-18T11:16:02;1.33;;;1.23;;
19006;SDS011;9636;47.382;8.480;2023-09-18T11:18:39;1.65;;;1.23;;
19006;SDS011;9636;47.382;8.480;2023-09-18T11:21:06;1.30;;;1.20;;
19006;SDS011;9636;47.382;8.480;2023-09-18T11:23:34;1.63;;;1.30;;
19006;SDS011;9636;47.382;8.480;2023-09-18T11:26:07;1.63;;;1.45;;
19006;SDS011;9636;47.382;8.480;2023-09-18T11:28:34;2.00;;;1.42;;
19006;SDS011;9636;47.382;8.480;2023-09-18T11:31:04;1.27;;;1.17;;
19006;SDS011;9636;47.382;8.480;2023-09-18T11:33:33;1.33;;;1.23;;
19006;SDS011;9636;47.382;8.480;2023-09-18T11:36:05;1.48;;;1.20;;
19006;SDS011;9636;47.382;8.480;2023-09-18T11:41:19;1.02;;;1.00;;
19006;SDS011;9636;47.382;8.480;2023-09-18T11:43:49;2.28;;;1.25;;
19006;SDS011;9636;47.382;8.480;2023-09-18T11:46:21;1.20;;;1.10;;
19006;SDS011;9636;47.382;8.480;2023-09-18T11:48:50;1.30;;;1.10;;
19006;SDS011;9636;47.382;8.480;2023-09-18T11:51:20;1.30;;;1.20;;
19006;SDS011;9636;47.382;8.480;2023-09-18T11:53:49;1.38;;;1.27;;
19006;SDS011;9636;47.382;8.480;2023-09-18T11:56:21;1.48;;;1.25;;
19006;SDS011;9636;47.382;8.480;2023-09-18T11:58:48;1.55;;;1.27;;
19006;SDS011;9636;47.382;8.480;2023-09-18T12:01:17;1.23;;;1.13;;
19006;SDS011;9636;47.382;8.480;2023-09-18T12:03:46;1.20;;;1.10;;
19006;SDS011;9636;47.382;8.480;2023-09-18T12:06:18;1.20;;;1.10;;
19006;SDS011;9636;47.382;8.480;2023-09-18T12:08:45;1.00;;;1.00;;
19006;SDS011;9636;47.382;8.480;2023-09-18T12:11:12;1.42;;;1.30;;
19006;SDS011;9636;47.382;8.480;2023-09-18T12:13:41;1.23;;;1.13;;
19006;SDS011;9636;47.382;8.480;2023-09-18T12:16:09;1.25;;;1.20;;
19006;SDS011;9636;47.382;8.480;2023-09-18T12:18:36;1.30;;;1.20;;
19006;SDS011;9636;47.382;8.480;2023-09-18T12:21:06;1.38;;;1.27;;
19006;SDS011;9636;47.382;8.480;2023-09-18T12:23:36;1.42;;;1.10;;
19006;SDS011;9636;47.382;8.480;2023-09-18T12:26:04;1.00;;;1.00;;
19006;SDS011;9636;47.382;8.480;2023-09-18T12:28:32;2.10;;;1.13;;
19006;SDS011;9636;47.382;8.480;2023-09-18T12:31:01;2.42;;;1.20;;
19006;SDS011;9636;47.382;8.480;2023-09-18T12:33:30;1.15;;;0.95;;
19006;SDS011;9636;47.382;8.480;2023-09-18T12:36:00;1.20;;;1.10;;
19006;SDS011;9636;47.382;8.480;2023-09-18T12:38:29;1.20;;;1.10;;
19006;SDS011;9636;47.382;8.480;2023-09-18T12:40:56;1.13;;;1.02;;
19006;SDS011;9636;47.382;8.480;2023-09-18T12:43:31;1.30;;;1.20;;
19006;SDS011;9636;47.382;8.480;2023-09-18T12:46:00;1.10;;;1.10;;
19006;SDS011;9636;47.382;8.480;2023-09-18T12:48:28;1.38;;;1.27;;
19006;SDS011;9636;47.382;8.480;2023-09-18T12:50:55;1.25;;;1.10;;
19006;SDS011;9636;47.382;8.480;2023-09-18T12:53:30;0.90;;;0.90;;
19006;SDS011;9636;47.382;8.480;2023-09-18T12:56:04;1.17;;;1.08;;
19006;SDS011;9636;47.382;8.480;2023-09-18T12:58:32;1.25;;;1.15;;
19006;SDS011;9636;47.382;8.480;2023-09-18T13:01:03;1.25;;;1.13;;
19006;SDS011;9636;47.382;8.480;2023-09-18T13:03:33;1.00;;;1.00;;
19006;SDS011;9636;47.382;8.480;2023-09-18T13:06:07;0.93;;;0.93;;
19006;SDS011;9636;47.382;8.480;2023-09-18T13:08:35;1.20;;;1.10;;
19006;SDS011;9636;47.382;8.480;2023-09-18T13:11:02;1.02;;;1.00;;
19006;SDS011;9636;47.382;8.480;2023-09-18T13:13:29;0.98;;;0.90;;
19006;SDS011;9636;47.382;8.480;2023-09-18T13:15:57;1.00;;;1.00;;
19006;SDS011;9636;47.382;8.480;2023-09-18T13:18:25;1.00;;;1.00;;
19006;SDS011;9636;47.382;8.480;2023-09-18T13:20:53;1.95;;;1.15;;
19006;SDS011;9636;47.382;8.480;2023-09-18T13:23:20;1.20;;;1.10;;
19006;SDS011;9636;47.382;8.480;2023-09-18T13:25:58;2.25;;;1.00;;
19006;SDS011;9636;47.382;8.480;2023-09-18T13:28:25;1.23;;;1.13;;
19006;SDS011;9636;47.382;8.480;2023-09-18T13:30:52;0.90;;;0.90;;
19006;SDS011;9636;47.382;8.480;2023-09-18T13:33:19;1.00;;;1.00;;
19006;SDS011;9636;47.382;8.480;2023-09-18T13:35:45;1.27;;;1.10;;
19006;SDS011;9636;47.382;8.480;2023-09-18T13:38:12;1.77;;;1.00;;
19006;SDS011;9636;47.382;8.480;2023-09-18T13:40:39;3.25;;;1.00;;
19006;SDS011;9636;47.382;8.480;2023-09-18T13:43:08;1.20;;;1.10;;
19006;SDS011;9636;47.382;8.480;2023-09-18T13:45:36;1.05;;;0.95;;
19006;SDS011;9636;47.382;8.480;2023-09-18T13:48:03;1.83;;;1.05;;
19006;SDS011;9636;47.382;8.480;2023-09-18T13:50:30;1.30;;;1.20;;
19006;SDS011;9636;47.382;8.480;2023-09-18T13:52:57;1.38;;;1.15;;
19006;SDS011;9636;47.382;8.480;2023-09-18T13:55:24;1.38;;;1.00;;
19006;SDS011;9636;47.382;8.480;2023-09-18T13:57:51;1.95;;;0.82;;
19006;SDS011;9636;47.382;8.480;2023-09-18T14:00:19;1.73;;;1.00;;
19006;SDS011;9636;47.382;8.480;2023-09-18T14:02:46;2.15;;;1.00;;
19006;SDS011;9636;47.382;8.480;2023-09-18T14:05:13;1.05;;;1.05;;
19006;SDS011;9636;47.382;8.480;2023-09-18T14:07:40;0.90;;;0.90;;
19006;SDS011;9636;47.382;8.480;2023-09-18T14:10:07;0.98;;;0.98;;
19006;SDS011;9636;47.382;8.480;2023-09-18T14:12:35;1.10;;;1.00;;
19006;SDS011;9636;47.382;8.480;2023-09-18T14:15:02;0.90;;;0.90;;
19006;SDS011;9636;47.382;8.480;2023-09-18T14:17:31;1.10;;;1.00;;
19006;SDS011;9636;47.382;8.480;2023-09-18T14:19:58;0.98;;;0.90;;
19006;SDS011;9636;47.382;8.480;2023-09-18T14:22:25;1.95;;;0.88;;
19006;SDS011;9636;47.382;8.480;2023-09-18T14:24:52;0.77;;;0.77;;
19006;SDS011;9636;47.382;8.480;2023-09-18T14:27:19;0.88;;;0.88;;
19006;SDS011;9636;47.382;8.480;2023-09-18T14:29:44;0.90;;;0.90;;
19006;SDS011;9636;47.382;8.480;2023-09-18T14:32:11;1.25;;;0.98;;
19006;SDS011;9636;47.382;8.480;2023-09-18T14:34:40;1.15;;;1.00;;
19006;SDS011;9636;47.382;8.480;2023-09-18T14:37:07;0.88;;;0.88;;
19006;SDS011;9636;47.382;8.480;2023-09-18T14:39:34;1.75;;;0.80;;
19006;SDS011;9636;47.382;8.480;2023-09-18T14:42:01;0.88;;;0.88;;
19006;SDS011;9636;47.382;8.480;2023-09-18T14:44:28;0.90;;;0.90;;
19006;SDS011;9636;47.382;8.480;2023-09-18T14:46:55;0.68;;;0.63;;
19006;SDS011;9636;47.382;8.480;2023-09-18T14:49:22;0.70;;;0.70;;
19006;SDS011;9636;47.382;8.480;2023-09-18T14:51:50;1.00;;;0.90;;
19006;SDS011;9636;47.382;8.480;2023-09-18T14:54:19;1.15;;;1.05;;
19006;SDS011;9636;47.382;8.480;2023-09-18T14:56:46;0.82;;;0.82;;
19006;SDS011;9636;47.382;8.480;2023-09-18T14:59:13;0.80;;;0.80;;
19006;SDS011;9636;47.382;8.480;2023-09-18T15:01:40;1.00;;;0.90;;
19006;SDS011;9636;47.382;8.480;2023-09-18T15:04:08;0.80;;;0.80;;
19006;SDS011;9636;47.382;8.480;2023-09-18T15:06:35;1.17;;;0.90;;
19006;SDS011;9636;47.382;8.480;2023-09-18T15:09:03;1.15;;;0.90;;